createdAt,value
2018-06-29T00:00:49.816Z,74.17
2018-06-29T00:01:49.695Z,73.69
2018-06-29T00:02:49.690Z,74.08
2018-06-29T00:03:49.677Z,74.08
2018-06-29T00:04:49.666Z,74.27
2018-06-29T00:05:49.653Z,74.27
2018-06-29T00:06:49.664Z,74.55
2018-06-29T00:07:49.622Z,74.27
2018-06-29T00:08:49.615Z,74.08
2018-06-29T00:09:49.593Z,74.27
2018-06-29T00:10:49.590Z,74.27
2018-06-29T00:11:49.570Z,74.17
2018-06-29T00:12:49.561Z,74.75
2018-06-29T00:13:49.548Z,74.37
2018-06-29T00:14:49.539Z,74.65
2018-06-29T00:15:49.517Z,74.65
2018-06-29T00:16:49.511Z,75.04
2018-06-29T00:17:49.640Z,75.42
2018-06-29T00:18:49.481Z,75.48
2018-06-29T00:19:49.470Z,75.42
2018-06-29T00:20:49.470Z,75.23
2018-06-29T00:21:49.442Z,75.42
2018-06-29T00:22:49.431Z,75.81
2018-06-29T00:23:49.421Z,75.62
2018-06-29T00:24:49.423Z,75.23
2018-06-29T00:25:49.396Z,75.38
2018-06-29T00:26:49.389Z,75.57
2018-06-29T00:27:49.370Z,75.48
2018-06-29T00:28:49.360Z,75.67
2018-06-29T00:29:49.345Z,75.67
2018-06-29T00:30:49.327Z,75.20
2018-06-29T00:31:49.321Z,75.29
2018-06-29T00:32:49.310Z,75.48
2018-06-29T00:33:49.297Z,75.10
2018-06-29T00:34:49.278Z,75.20
2018-06-29T00:35:49.274Z,75.20
2018-06-29T00:36:49.257Z,75.67
2018-06-29T00:37:49.238Z,76.64
2018-06-29T00:38:49.234Z,76.44
2018-06-29T00:39:49.216Z,76.15
2018-06-29T00:40:49.208Z,76.73
2018-06-29T00:41:49.190Z,76.73
2018-06-29T00:42:49.180Z,76.44
2018-06-29T00:43:49.177Z,76.64
2018-06-29T00:44:49.149Z,76.54
2018-06-29T00:45:49.147Z,76.92
2018-06-29T00:46:49.132Z,76.25
2018-06-29T00:47:49.124Z,76.54
2018-06-29T00:48:49.104Z,76.34
2018-06-29T00:49:49.084Z,76.54
2018-06-29T00:50:49.090Z,76.92
2018-06-29T00:51:49.065Z,76.82
2018-06-29T00:52:49.045Z,76.82
2018-06-29T00:53:49.048Z,76.79
2018-06-29T00:54:49.025Z,76.98
2018-06-29T00:55:49.016Z,77.31
2018-06-29T00:56:49.017Z,77.36
2018-06-29T00:57:48.992Z,77.17
2018-06-29T00:58:49.010Z,76.98
2018-06-29T00:59:48.959Z,76.98
2018-06-29T01:00:48.949Z,76.98
2018-06-29T01:01:48.928Z,77.17
2018-06-29T01:02:48.920Z,77.08
2018-06-29T01:03:48.909Z,77.36
2018-06-29T01:04:48.903Z,76.88
2018-06-29T01:05:48.883Z,77.26
2018-06-29T01:06:48.870Z,76.98
2018-06-29T01:07:48.860Z,76.98
2018-06-29T01:08:48.856Z,77.26
2018-06-29T01:09:48.826Z,76.79
2018-06-29T01:10:48.819Z,76.98
2018-06-29T01:11:48.806Z,76.31
2018-06-29T01:12:48.787Z,77.26
2018-06-29T01:13:48.773Z,77.17
2018-06-29T01:14:48.762Z,77.26
2018-06-29T01:15:48.749Z,77.17
2018-06-29T01:16:48.739Z,77.36
2018-06-29T01:17:48.729Z,77.36
2018-06-29T01:18:48.708Z,77.17
2018-06-29T01:19:48.700Z,76.98
2018-06-29T01:20:48.685Z,77.26
2018-06-29T01:21:48.673Z,77.08
2018-06-29T01:22:48.657Z,76.59
2018-06-29T01:23:48.662Z,76.69
2018-06-29T01:24:48.640Z,77.17
2018-06-29T01:25:48.616Z,76.98
2018-06-29T01:26:48.619Z,77.08
2018-06-29T01:27:48.588Z,76.79
2018-06-29T01:28:48.585Z,77.08
2018-06-29T01:29:48.560Z,76.88
2018-06-29T01:30:48.582Z,77.08
2018-06-29T01:31:48.538Z,77.08
2018-06-29T01:32:48.522Z,76.98
2018-06-29T01:33:48.509Z,77.42
2018-06-29T01:34:48.498Z,77.04
2018-06-29T01:35:48.488Z,77.56
2018-06-29T01:36:48.476Z,77.42
2018-06-29T01:37:48.460Z,77.80
2018-06-29T01:38:48.461Z,78.00
2018-06-29T01:39:48.435Z,78.19
2018-06-29T01:40:48.419Z,78.09
2018-06-29T01:41:48.404Z,78.09
2018-06-29T01:42:48.388Z,78.57
2018-06-29T01:43:48.384Z,78.38
2018-06-29T01:44:48.372Z,78.67
2018-06-29T01:45:48.389Z,78.86
2018-06-29T01:46:48.340Z,78.96
2018-06-29T01:47:48.328Z,79.05
2018-06-29T01:48:48.321Z,78.86
2018-06-29T01:49:48.306Z,78.57
2018-06-29T01:50:48.279Z,79.05
2018-06-29T01:51:48.274Z,79.34
2018-06-29T01:52:48.260Z,79.14
2018-06-29T01:53:48.253Z,79.24
2018-06-29T01:54:48.233Z,79.14
2018-06-29T01:55:48.220Z,79.34
2018-06-29T01:56:48.204Z,79.24
2018-06-29T01:57:48.197Z,79.24
2018-06-29T01:58:48.179Z,79.34
2018-06-29T01:59:48.170Z,79.24
2018-06-29T02:00:48.158Z,79.34
2018-06-29T02:01:48.132Z,79.53
2018-06-29T02:02:48.127Z,79.44
2018-06-29T02:03:48.115Z,79.49
2018-06-29T02:04:48.111Z,79.34
2018-06-29T02:05:48.089Z,79.68
2018-06-29T02:06:48.073Z,79.88
2018-06-29T02:07:48.056Z,80.16
2018-06-29T02:08:48.054Z,80.16
2018-06-29T02:09:48.035Z,80.26
2018-06-29T02:10:48.016Z,79.78
2018-06-29T02:11:48.005Z,79.88
2018-06-29T02:12:47.987Z,79.88
2018-06-29T02:13:47.993Z,80.74
2018-06-29T02:14:47.961Z,80.83
2018-06-29T02:15:47.951Z,81.41
2018-06-29T02:16:47.936Z,81.31
2018-06-29T02:17:47.917Z,81.12
2018-06-29T02:18:47.927Z,81.41
2018-06-29T02:19:47.915Z,81.31
2018-06-29T02:20:47.884Z,81.41
2018-06-29T02:21:47.866Z,81.89
2018-06-29T02:22:47.852Z,81.79
2018-06-29T02:23:47.844Z,82.08
2018-06-29T02:24:47.832Z,81.41
2018-06-29T02:25:47.814Z,81.31
2018-06-29T02:26:47.797Z,81.89
2018-06-29T02:27:47.783Z,81.79
2018-06-29T02:28:47.828Z,81.95
2018-06-29T02:29:47.763Z,81.79
2018-06-29T02:30:47.852Z,81.56
2018-06-29T02:31:47.729Z,81.95
2018-06-29T02:32:47.716Z,81.27
2018-06-29T02:33:47.703Z,81.37
2018-06-29T02:34:47.698Z,81.46
2018-06-29T02:35:47.678Z,81.56
2018-06-29T02:36:47.664Z,81.56
2018-06-29T02:37:47.645Z,81.75
2018-06-29T02:38:47.632Z,81.95
2018-06-29T02:39:47.620Z,81.46
2018-06-29T02:40:47.612Z,81.66
2018-06-29T02:41:47.593Z,81.85
2018-06-29T02:42:47.577Z,81.56
2018-06-29T02:43:47.570Z,82.04
2018-06-29T02:44:47.561Z,81.95
2018-06-29T02:45:47.537Z,81.95
2018-06-29T02:46:47.534Z,82.32
2018-06-29T02:47:47.508Z,82.52
2018-06-29T02:48:47.501Z,82.42
2018-06-29T02:49:47.494Z,82.42
2018-06-29T02:50:47.468Z,82.42
2018-06-29T02:51:47.458Z,82.71
2018-06-29T02:52:47.455Z,82.90
2018-06-29T02:53:47.428Z,82.81
2018-06-29T02:54:47.420Z,82.90
2018-06-29T02:55:47.406Z,83.00
2018-06-29T02:56:47.388Z,83.00
2018-06-29T02:57:47.374Z,82.71
2018-06-29T02:58:47.354Z,82.81
2018-06-29T02:59:47.345Z,83.09
2018-06-29T03:00:47.369Z,83.09
2018-06-29T03:01:47.320Z,83.19
2018-06-29T03:02:47.308Z,83.95
2018-06-29T03:03:47.357Z,83.76
2018-06-29T03:04:47.275Z,83.76
2018-06-29T03:05:47.265Z,84.25
2018-06-29T03:06:47.244Z,84.53
2018-06-29T03:07:47.236Z,84.25
2018-06-29T03:08:47.233Z,84.39
2018-06-29T03:09:47.220Z,84.30
2018-06-29T03:10:47.190Z,84.20
2018-06-29T03:11:47.181Z,84.78
2018-06-29T03:12:47.168Z,84.97
2018-06-29T03:13:47.151Z,84.78
2018-06-29T03:14:47.133Z,84.97
2018-06-29T03:15:47.123Z,85.06
2018-06-29T03:16:47.119Z,85.06
2018-06-29T03:17:47.142Z,84.68
2018-06-29T03:18:47.096Z,85.16
2018-06-29T03:19:47.063Z,84.97
2018-06-29T03:20:47.054Z,85.35
2018-06-29T03:21:47.039Z,85.54
2018-06-29T03:22:47.028Z,84.97
2018-06-29T03:23:47.006Z,85.35
2018-06-29T03:24:47.000Z,84.88
2018-06-29T03:25:46.980Z,85.16
2018-06-29T03:26:46.973Z,85.35
2018-06-29T03:27:46.954Z,85.45
2018-06-29T03:28:46.947Z,85.64
2018-06-29T03:29:46.923Z,85.83
2018-06-29T03:30:46.918Z,85.93
2018-06-29T03:31:46.894Z,86.12
2018-06-29T03:32:46.888Z,85.83
2018-06-29T03:33:46.910Z,85.64
2018-06-29T03:34:46.881Z,85.83
2018-06-29T03:35:46.845Z,86.02
2018-06-29T03:36:46.828Z,86.31
2018-06-29T03:37:46.816Z,86.41
2018-06-29T03:38:46.806Z,86.69
2018-06-29T03:39:46.790Z,86.50
2018-06-29T03:40:46.799Z,86.41
2018-06-29T03:41:46.760Z,86.41
2018-06-29T03:42:46.754Z,86.60
2018-06-29T03:43:46.733Z,86.88
2018-06-29T03:44:46.721Z,86.88
2018-06-29T03:45:46.707Z,87.17
2018-06-29T03:46:46.691Z,87.51
2018-06-29T03:47:46.687Z,86.88
2018-06-29T03:48:46.668Z,87.41
2018-06-29T03:49:46.645Z,87.23
2018-06-29T03:50:46.637Z,87.55
2018-06-29T03:51:46.616Z,87.61
2018-06-29T03:52:46.610Z,87.99
2018-06-29T03:53:46.593Z,87.70
2018-06-29T03:54:46.574Z,88.47
2018-06-29T03:55:46.558Z,88.09
2018-06-29T03:56:46.540Z,88.18
2018-06-29T03:57:46.542Z,88.95
2018-06-29T03:58:46.519Z,88.09
2018-06-29T03:59:46.501Z,88.76
2018-06-29T04:00:46.504Z,88.76
2018-06-29T04:01:46.473Z,88.56
2018-06-29T04:02:46.464Z,88.66
2018-06-29T04:03:46.457Z,88.37
2018-06-29T04:04:46.430Z,88.66
2018-06-29T04:05:46.417Z,88.85
2018-06-29T04:06:46.406Z,88.47
2018-06-29T04:07:46.396Z,88.28
2018-06-29T04:08:46.375Z,88.09
2018-06-29T04:09:46.360Z,88.09
2018-06-29T04:10:46.358Z,88.66
2018-06-29T04:11:46.336Z,88.56
2018-06-29T04:12:46.314Z,88.66
2018-06-29T04:13:46.303Z,88.85
2018-06-29T04:14:46.311Z,88.56
2018-06-29T04:15:46.274Z,88.56
2018-06-29T04:16:46.273Z,89.04
2018-06-29T04:17:46.260Z,88.85
2018-06-29T04:18:46.231Z,88.95
2018-06-29T04:19:46.220Z,88.76
2018-06-29T04:20:46.203Z,88.56
2018-06-29T04:21:46.194Z,88.42
2018-06-29T04:22:46.176Z,88.70
2018-06-29T04:23:46.158Z,88.23
2018-06-29T04:24:46.154Z,88.70
2018-06-29T04:25:46.136Z,88.70
2018-06-29T04:26:46.118Z,88.90
2018-06-29T04:27:46.103Z,88.80
2018-06-29T04:28:46.137Z,88.51
2018-06-29T04:29:46.098Z,88.61
2018-06-29T04:30:46.060Z,88.42
2018-06-29T04:31:46.065Z,88.42
2018-06-29T04:32:46.077Z,88.90
2018-06-29T04:33:46.016Z,88.13
2018-06-29T04:34:46.005Z,88.61
2018-06-29T04:35:45.992Z,88.23
2018-06-29T04:36:45.979Z,88.61
2018-06-29T04:37:45.963Z,88.80
2018-06-29T04:38:45.943Z,88.70
2018-06-29T04:39:45.940Z,88.61
2018-06-29T04:40:45.928Z,88.70
2018-06-29T04:41:45.899Z,88.51
2018-06-29T04:42:45.942Z,88.32
2018-06-29T04:43:45.877Z,88.80
2018-06-29T04:44:45.867Z,88.80
2018-06-29T04:45:45.855Z,88.80
2018-06-29T04:46:45.833Z,88.70
2018-06-29T04:47:45.822Z,88.51
2018-06-29T04:48:45.808Z,88.80
2018-06-29T04:49:45.794Z,88.90
2018-06-29T04:50:45.780Z,88.99
2018-06-29T04:51:45.770Z,88.42
2018-06-29T04:52:45.786Z,89.37
2018-06-29T04:53:45.747Z,89.28
2018-06-29T04:54:45.725Z,89.18
2018-06-29T04:55:45.715Z,89.04
2018-06-29T04:56:45.690Z,88.65
2018-06-29T04:57:45.684Z,88.84
2018-06-29T04:58:45.668Z,88.84
2018-06-29T04:59:45.656Z,88.84
2018-06-29T05:00:45.647Z,88.94
2018-06-29T05:01:45.641Z,89.04
2018-06-29T05:02:45.650Z,88.46
2018-06-29T05:03:45.608Z,88.84
2018-06-29T05:04:45.595Z,88.56
2018-06-29T05:05:45.576Z,88.37
2018-06-29T05:06:45.583Z,88.94
2018-06-29T05:07:45.565Z,88.75
2018-06-29T05:08:45.544Z,88.56
2018-06-29T05:09:45.520Z,88.65
2018-06-29T05:10:45.548Z,88.75
2018-06-29T05:11:45.505Z,88.56
2018-06-29T05:12:45.525Z,88.84
2018-06-29T05:13:45.467Z,88.65
2018-06-29T05:14:45.496Z,88.75
2018-06-29T05:15:45.466Z,88.37
2018-06-29T05:16:45.459Z,89.42
2018-06-29T05:17:45.411Z,89.13
2018-06-29T05:18:45.454Z,89.23
2018-06-29T05:19:45.387Z,88.84
2018-06-29T05:20:45.447Z,88.94
2018-06-29T05:21:45.358Z,89.42
2018-06-29T05:22:45.338Z,89.32
2018-06-29T05:23:45.373Z,88.94
2018-06-29T05:24:45.325Z,89.13
2018-06-29T05:25:45.327Z,89.32
2018-06-29T05:26:45.294Z,89.23
2018-06-29T05:27:45.301Z,89.32
2018-06-29T05:28:45.336Z,89.47
2018-06-29T05:29:45.239Z,89.37
2018-06-29T05:30:45.239Z,88.79
2018-06-29T05:31:45.244Z,88.70
2018-06-29T05:32:45.229Z,88.89
2018-06-29T05:33:45.198Z,88.79
2018-06-29T05:34:45.184Z,88.60
2018-06-29T05:35:45.165Z,88.60
2018-06-29T05:36:45.175Z,88.51
2018-06-29T05:37:45.159Z,88.70
2018-06-29T05:38:45.121Z,88.98
2018-06-29T05:39:45.141Z,88.51
2018-06-29T05:40:45.109Z,88.93
2018-06-29T05:41:45.191Z,88.93
2018-06-29T05:42:45.159Z,88.84
2018-06-29T05:43:45.094Z,89.22
2018-06-29T05:44:45.070Z,88.98
2018-06-29T05:45:45.056Z,88.74
2018-06-29T05:46:45.001Z,88.65
2018-06-29T05:47:45.074Z,88.35
2018-06-29T05:48:44.993Z,88.55
2018-06-29T05:49:44.987Z,88.45
2018-06-29T05:50:44.985Z,88.45
2018-06-29T05:51:44.966Z,88.35
2018-06-29T05:52:44.940Z,87.78
2018-06-29T05:53:44.975Z,88.35
2018-06-29T05:54:44.943Z,88.35
2018-06-29T05:55:44.971Z,88.45
2018-06-29T05:56:44.986Z,87.98
2018-06-29T05:57:44.879Z,87.68
2018-06-29T05:58:44.881Z,87.40
2018-06-29T05:59:44.886Z,87.40
2018-06-29T06:00:44.812Z,87.59
2018-06-29T06:01:44.812Z,87.59
2018-06-29T06:02:44.829Z,87.49
2018-06-29T06:03:44.782Z,87.35
2018-06-29T06:04:44.867Z,86.68
2018-06-29T06:05:44.772Z,86.77
2018-06-29T06:06:44.754Z,86.00
2018-06-29T06:07:44.757Z,86.29
2018-06-29T06:08:44.756Z,85.52
2018-06-29T06:09:44.734Z,85.33
2018-06-29T06:10:44.688Z,84.99
2018-06-29T06:11:44.694Z,83.93
2018-06-29T06:12:44.818Z,83.93
2018-06-29T06:13:44.676Z,83.74
2018-06-29T06:14:44.636Z,82.82
2018-06-29T06:15:44.634Z,80.94
2018-06-29T06:16:44.633Z,79.21
2018-06-29T06:17:44.664Z,79.63
2018-06-29T06:18:44.578Z,78.58
2018-06-29T06:19:44.575Z,78.77
2018-06-29T06:20:44.571Z,77.71
2018-06-29T06:21:44.574Z,77.42
2018-06-29T06:22:44.569Z,76.98
2018-06-29T06:23:44.575Z,76.78
2018-06-29T06:24:44.534Z,76.06
2018-06-29T06:25:44.541Z,75.38
2018-06-29T06:26:44.513Z,75.03
2018-06-29T06:27:44.485Z,73.43
2018-06-29T06:28:44.484Z,72.31
2018-06-29T06:29:44.471Z,70.28
2018-06-29T06:30:44.433Z,68.49
2018-06-29T06:31:44.434Z,68.39
2018-06-29T06:32:44.429Z,67.46
2018-06-29T06:33:44.600Z,66.75
2018-06-29T06:34:44.382Z,63.92
2018-06-29T06:35:44.396Z,61.92
2018-06-29T06:36:44.405Z,60.52
2018-06-29T06:37:44.477Z,56.70
2018-06-29T06:38:44.327Z,51.72
2018-06-29T06:39:44.335Z,51.17
2018-06-29T06:40:44.339Z,49.90
2018-06-29T06:41:44.374Z,48.58
2018-06-29T06:42:44.308Z,46.95
2018-06-29T06:43:44.271Z,45.15
2018-06-29T06:44:44.268Z,44.19
2018-06-29T06:45:44.270Z,46.78
2018-06-29T06:46:44.295Z,48.66
2018-06-29T06:47:44.256Z,46.37
2018-06-29T06:48:44.274Z,46.25
2018-06-29T06:49:44.226Z,45.71
2018-06-29T06:50:44.237Z,45.98
2018-06-29T06:51:44.241Z,44.38
2018-06-29T06:52:44.203Z,43.88
2018-06-29T06:53:44.263Z,46.08
2018-06-29T06:54:44.183Z,43.75
2018-06-29T06:55:44.191Z,41.44
2018-06-29T06:56:44.148Z,39.64
2018-06-29T06:57:44.136Z,38.41
2018-06-29T06:58:44.155Z,36.88
2018-06-29T06:59:44.216Z,36.29
2018-06-29T07:00:44.165Z,35.96
2018-06-29T07:01:44.136Z,37.13
2018-06-29T07:02:44.116Z,37.39
2018-06-29T07:03:44.113Z,39.12
2018-06-29T07:04:44.119Z,39.22
2018-06-29T07:05:44.088Z,38.92
2018-06-29T07:06:44.083Z,38.53
2018-06-29T07:07:44.071Z,38.45
2018-06-29T07:08:44.089Z,39.39
2018-06-29T07:09:44.050Z,39.88
2018-06-29T07:10:44.051Z,38.43
2018-06-29T07:11:44.068Z,39.84
2018-06-29T07:12:44.091Z,40.50
2018-06-29T07:13:44.062Z,39.98
2018-06-29T07:14:44.035Z,39.22
2018-06-29T07:15:44.017Z,39.08
2018-06-29T07:16:44.048Z,39.08
2018-06-29T07:17:44.027Z,39.08
2018-06-29T07:18:43.996Z,38.90
2018-06-29T07:19:44.035Z,38.53
2018-06-29T07:20:44.018Z,38.35
2018-06-29T07:21:43.996Z,36.45
2018-06-29T07:22:43.994Z,36.47
2018-06-29T07:23:43.985Z,35.58
2018-06-29T07:24:43.987Z,35.68
2018-06-29T07:25:43.955Z,35.85
2018-06-29T07:26:44.073Z,37.08
2018-06-29T07:27:43.979Z,37.67
2018-06-29T07:28:43.943Z,36.53
2018-06-29T07:29:43.933Z,35.94
2018-06-29T07:30:43.925Z,36.00
2018-06-29T07:31:43.944Z,37.75
2018-06-29T07:32:43.965Z,38.34
2018-06-29T07:33:43.941Z,38.42
2018-06-29T07:34:43.911Z,40.48
2018-06-29T07:35:43.928Z,43.54
2018-06-29T07:36:43.898Z,44.42
2018-06-29T07:37:43.999Z,43.71
2018-06-29T07:38:43.934Z,40.27
2018-06-29T07:39:43.911Z,38.10
2018-06-29T07:40:43.906Z,35.89
2018-06-29T07:41:43.926Z,35.29
2018-06-29T07:42:43.898Z,36.04
2018-06-29T07:43:43.868Z,36.43
2018-06-29T07:44:43.865Z,37.08
2018-06-29T07:45:43.853Z,37.35
2018-06-29T07:46:43.880Z,39.43
2018-06-29T07:47:43.859Z,40.58
2018-06-29T07:48:43.847Z,40.99
2018-06-29T07:49:43.926Z,41.25
2018-06-29T07:50:43.844Z,42.49
2018-06-29T07:51:43.851Z,42.61
2018-06-29T07:52:43.847Z,42.44
2018-06-29T07:53:43.849Z,42.34
2018-06-29T07:54:43.860Z,42.69
2018-06-29T07:55:43.850Z,43.76
2018-06-29T07:56:43.823Z,44.05
2018-06-29T07:57:43.822Z,44.40
2018-06-29T07:58:44.617Z,44.69
2018-06-29T07:59:43.818Z,45.18
2018-06-29T08:00:43.822Z,44.30
2018-06-29T08:01:43.833Z,44.42
2018-06-29T08:02:43.929Z,43.96
2018-06-29T08:03:43.802Z,47.08
2018-06-29T08:04:43.803Z,48.61
2018-06-29T08:05:43.810Z,50.34
2018-06-29T08:06:43.794Z,51.31
2018-06-29T08:07:43.807Z,51.86
2018-06-29T08:08:43.914Z,52.54
2018-06-29T08:09:43.924Z,51.47
2018-06-29T08:10:43.886Z,51.01
2018-06-29T08:11:43.822Z,50.24
2018-06-29T08:12:43.783Z,49.87
2018-06-29T08:13:43.783Z,50.26
2018-06-29T08:14:43.798Z,49.97
2018-06-29T08:15:43.803Z,49.90
2018-06-29T08:16:43.827Z,49.22
2018-06-29T08:17:43.783Z,49.22
2018-06-29T08:18:43.828Z,50.07
2018-06-29T08:19:43.842Z,50.07
2018-06-29T08:20:43.803Z,50.82
2018-06-29T08:21:43.788Z,51.57
2018-06-29T08:22:43.762Z,52.06
2018-06-29T08:23:43.792Z,52.83
2018-06-29T08:24:43.794Z,53.09
2018-06-29T08:25:43.766Z,53.87
2018-06-29T08:26:43.769Z,54.71
2018-06-29T08:27:43.782Z,55.17
2018-06-29T08:28:43.744Z,54.91
2018-06-29T08:29:43.768Z,54.88
2018-06-29T08:30:43.741Z,55.00
2018-06-29T08:31:43.730Z,55.17
2018-06-29T08:32:43.769Z,55.17
2018-06-29T08:33:43.729Z,56.04
2018-06-29T08:34:43.755Z,55.85
2018-06-29T08:35:43.731Z,54.75
2018-06-29T08:36:43.735Z,55.17
2018-06-29T08:37:43.767Z,55.36
2018-06-29T08:38:43.747Z,55.46
2018-06-29T08:39:43.704Z,55.17
2018-06-29T08:40:43.712Z,55.10
2018-06-29T08:41:43.707Z,54.62
2018-06-29T08:42:43.724Z,55.07
2018-06-29T08:43:43.686Z,55.10
2018-06-29T08:44:43.745Z,53.65
2018-06-29T08:45:43.688Z,53.65
2018-06-29T08:46:43.727Z,53.17
2018-06-29T08:47:43.665Z,53.14
2018-06-29T08:48:43.662Z,53.07
2018-06-29T08:49:43.725Z,53.14
2018-06-29T08:50:43.658Z,53.53
2018-06-29T08:51:43.643Z,53.91
2018-06-29T08:52:43.719Z,53.31
2018-06-29T08:53:43.635Z,53.81
2018-06-29T08:54:43.609Z,53.69
2018-06-29T08:55:43.661Z,53.99
2018-06-29T08:56:43.681Z,53.69
2018-06-29T08:57:43.620Z,53.89
2018-06-29T08:58:43.577Z,54.66
2018-06-29T08:59:43.568Z,53.99
2018-06-29T09:00:43.565Z,54.08
2018-06-29T09:01:43.547Z,53.81
2018-06-29T09:02:43.554Z,53.89
2018-06-29T09:03:43.552Z,54.01
2018-06-29T09:04:43.542Z,53.81
2018-06-29T09:05:43.573Z,53.63
2018-06-29T09:06:43.532Z,53.91
2018-06-29T09:07:43.557Z,53.65
2018-06-29T09:08:43.489Z,52.97
2018-06-29T09:09:43.480Z,53.07
2018-06-29T09:10:43.506Z,53.17
2018-06-29T09:11:43.485Z,52.42
2018-06-29T09:12:43.459Z,52.10
2018-06-29T09:13:43.454Z,52.39
2018-06-29T09:14:43.495Z,51.62
2018-06-29T09:15:43.494Z,51.23
2018-06-29T09:16:43.437Z,51.62
2018-06-29T09:17:43.455Z,52.17
2018-06-29T09:18:43.414Z,51.78
2018-06-29T09:19:43.417Z,51.68
2018-06-29T09:20:43.389Z,52.36
2018-06-29T09:21:43.386Z,52.29
2018-06-29T09:22:43.385Z,52.20
2018-06-29T09:23:43.384Z,51.25
2018-06-29T09:24:43.380Z,51.45
2018-06-29T09:25:43.384Z,51.06
2018-06-29T09:26:43.349Z,51.45
2018-06-29T09:27:43.347Z,50.29
2018-06-29T09:28:43.333Z,50.67
2018-06-29T09:29:43.347Z,50.96
2018-06-29T09:30:43.353Z,50.67
2018-06-29T09:31:43.339Z,50.67
2018-06-29T09:32:43.389Z,49.73
2018-06-29T09:33:43.415Z,49.92
2018-06-29T09:34:43.281Z,50.09
2018-06-29T09:35:43.275Z,50.19
2018-06-29T09:36:43.320Z,50.67
2018-06-29T09:37:43.281Z,51.84
2018-06-29T09:38:43.263Z,51.74
2018-06-29T09:39:43.244Z,52.12
2018-06-29T09:40:43.246Z,52.39
2018-06-29T09:41:43.213Z,51.72
2018-06-29T09:42:43.216Z,51.45
2018-06-29T09:43:43.228Z,51.04
2018-06-29T09:44:43.202Z,51.32
2018-06-29T09:45:43.181Z,51.16
2018-06-29T09:46:43.179Z,51.25
2018-06-29T09:47:43.205Z,50.87
2018-06-29T09:48:43.164Z,50.67
2018-06-29T09:49:43.152Z,51.16
2018-06-29T09:50:43.147Z,50.19
2018-06-29T09:51:43.148Z,50.87
2018-06-29T09:52:43.134Z,50.96
2018-06-29T09:53:43.110Z,51.57
2018-06-29T09:54:43.182Z,50.89
2018-06-29T09:55:43.192Z,51.28
2018-06-29T09:56:43.194Z,51.09
2018-06-29T09:57:43.116Z,50.02
2018-06-29T09:58:43.080Z,50.21
2018-06-29T09:59:43.094Z,50.21
2018-06-29T10:00:43.098Z,50.31
2018-06-29T10:01:43.077Z,49.92
2018-06-29T10:02:43.051Z,49.92
2018-06-29T10:03:43.058Z,50.21
2018-06-29T10:04:43.025Z,49.82
2018-06-29T10:05:43.033Z,48.95
2018-06-29T10:06:43.027Z,48.66
2018-06-29T10:07:43.074Z,49.05
2018-06-29T10:08:43.013Z,48.97
2018-06-29T10:09:43.001Z,48.78
2018-06-29T10:10:43.033Z,48.97
2018-06-29T10:11:43.037Z,48.88
2018-06-29T10:12:42.971Z,47.72
2018-06-29T10:13:42.955Z,48.00
2018-06-29T10:14:42.953Z,48.88
2018-06-29T10:15:42.948Z,48.88
2018-06-29T10:16:42.952Z,48.39
2018-06-29T10:17:42.922Z,48.42
2018-06-29T10:18:43.046Z,48.10
2018-06-29T10:19:42.988Z,48.10
2018-06-29T10:20:42.923Z,47.74
2018-06-29T10:21:42.886Z,47.72
2018-06-29T10:22:42.899Z,47.93
2018-06-29T10:23:42.873Z,48.22
2018-06-29T10:24:42.915Z,47.93
2018-06-29T10:25:42.858Z,48.22
2018-06-29T10:26:42.858Z,47.57
2018-06-29T10:27:42.881Z,47.45
2018-06-29T10:28:42.844Z,47.35
2018-06-29T10:29:42.831Z,48.13
2018-06-29T10:30:42.839Z,47.06
2018-06-29T10:31:42.833Z,46.86
2018-06-29T10:32:42.800Z,46.01
2018-06-29T10:33:42.808Z,45.62
2018-06-29T10:34:42.844Z,45.72
2018-06-29T10:35:42.835Z,45.53
2018-06-29T10:36:42.806Z,46.50
2018-06-29T10:37:42.828Z,45.82
2018-06-29T10:38:42.837Z,45.53
2018-06-29T10:39:42.768Z,45.34
2018-06-29T10:40:42.787Z,45.70
2018-06-29T10:41:42.768Z,45.97
2018-06-29T10:42:42.782Z,46.45
2018-06-29T10:43:42.711Z,46.36
2018-06-29T10:44:42.777Z,47.03
2018-06-29T10:45:42.763Z,47.03
2018-06-29T10:46:42.704Z,47.23
2018-06-29T10:47:42.694Z,47.35
2018-06-29T10:48:42.683Z,46.96
2018-06-29T10:49:42.707Z,46.38
2018-06-29T10:50:42.679Z,47.16
2018-06-29T10:51:42.646Z,46.28
2018-06-29T10:52:42.660Z,46.21
2018-06-29T10:53:42.630Z,44.56
2018-06-29T10:54:42.639Z,44.37
2018-06-29T10:55:42.623Z,44.37
2018-06-29T10:56:42.611Z,44.27
2018-06-29T10:57:42.624Z,44.24
2018-06-29T10:58:42.662Z,45.02
2018-06-29T10:59:42.652Z,45.21
2018-06-29T11:00:42.588Z,44.92
2018-06-29T11:01:42.589Z,44.92
2018-06-29T11:02:42.620Z,44.65
2018-06-29T11:03:42.572Z,44.75
2018-06-29T11:04:42.565Z,44.37
2018-06-29T11:05:42.593Z,44.46
2018-06-29T11:06:42.554Z,44.27
2018-06-29T11:07:42.558Z,44.17
2018-06-29T11:08:42.519Z,44.27
2018-06-29T11:09:42.510Z,44.34
2018-06-29T11:10:42.532Z,44.83
2018-06-29T11:11:42.543Z,44.56
2018-06-29T11:12:42.504Z,43.98
2018-06-29T11:13:42.524Z,43.59
2018-06-29T11:14:42.467Z,43.78
2018-06-29T11:15:42.517Z,43.88
2018-06-29T11:16:42.566Z,42.91
2018-06-29T11:17:42.488Z,42.03
2018-06-29T11:18:42.485Z,42.23
2018-06-29T11:19:42.435Z,42.33
2018-06-29T11:20:42.436Z,42.11
2018-06-29T11:21:42.455Z,41.92
2018-06-29T11:22:42.454Z,42.21
2018-06-29T11:23:42.406Z,42.03
2018-06-29T11:24:42.517Z,42.13
2018-06-29T11:25:42.497Z,42.13
2018-06-29T11:26:42.427Z,42.52
2018-06-29T11:27:42.388Z,42.43
2018-06-29T11:28:42.370Z,42.35
2018-06-29T11:29:42.359Z,42.35
2018-06-29T11:30:42.397Z,42.23
2018-06-29T11:31:42.375Z,42.81
2018-06-29T11:32:42.393Z,43.30
2018-06-29T11:33:42.330Z,42.83
2018-06-29T11:34:42.334Z,43.10
2018-06-29T11:35:42.354Z,43.30
2018-06-29T11:36:42.381Z,43.59
2018-06-29T11:37:42.300Z,43.61
2018-06-29T11:38:42.313Z,43.61
2018-06-29T11:39:42.281Z,42.83
2018-06-29T11:40:42.274Z,42.74
2018-06-29T11:41:42.281Z,42.74
2018-06-29T11:42:42.330Z,42.35
2018-06-29T11:43:42.289Z,40.89
2018-06-29T11:44:42.253Z,40.21
2018-06-29T11:45:42.255Z,40.50
2018-06-29T11:46:42.240Z,39.72
2018-06-29T11:47:42.216Z,40.69
2018-06-29T11:48:42.277Z,40.50
2018-06-29T11:49:42.214Z,41.08
2018-06-29T11:50:42.241Z,41.08
2018-06-29T11:51:42.214Z,41.86
2018-06-29T11:52:42.187Z,41.77
2018-06-29T11:53:42.184Z,41.88
2018-06-29T11:54:42.187Z,40.23
2018-06-29T11:55:42.241Z,38.85
2018-06-29T11:56:42.154Z,39.43
2018-06-29T11:57:42.146Z,40.01
2018-06-29T11:58:42.143Z,40.99
2018-06-29T11:59:42.133Z,41.18
2018-06-29T12:00:42.155Z,41.30
2018-06-29T12:01:42.122Z,41.01
2018-06-29T12:02:42.133Z,41.39
2018-06-29T12:03:42.108Z,41.98
2018-06-29T12:04:42.139Z,41.88
2018-06-29T12:05:42.080Z,42.36
2018-06-29T12:06:42.077Z,42.27
2018-06-29T12:07:42.071Z,41.20
2018-06-29T12:08:42.094Z,41.49
2018-06-29T12:09:42.057Z,42.36
2018-06-29T12:10:42.061Z,42.85
2018-06-29T12:11:42.042Z,43.44
2018-06-29T12:12:42.034Z,42.85
2018-06-29T12:13:42.033Z,43.44
2018-06-29T12:14:42.026Z,43.32
2018-06-29T12:15:42.010Z,43.71
2018-06-29T12:16:42.011Z,43.51
2018-06-29T12:17:42.001Z,43.54
2018-06-29T12:18:42.000Z,43.54
2018-06-29T12:19:41.978Z,43.82
2018-06-29T12:20:41.975Z,43.82
2018-06-29T12:21:41.960Z,42.85
2018-06-29T12:22:41.973Z,43.05
2018-06-29T12:23:41.957Z,43.63
2018-06-29T12:24:42.005Z,43.92
2018-06-29T12:25:41.974Z,43.73
2018-06-29T12:26:41.967Z,43.44
2018-06-29T12:27:41.928Z,42.85
2018-06-29T12:28:41.922Z,42.27
2018-06-29T12:29:41.896Z,42.18
2018-06-29T12:30:41.928Z,42.27
2018-06-29T12:31:41.914Z,42.46
2018-06-29T12:32:41.915Z,42.56
2018-06-29T12:33:41.888Z,42.58
2018-06-29T12:34:42.661Z,42.49
2018-06-29T12:35:41.873Z,42.39
2018-06-29T12:36:41.903Z,42.49
2018-06-29T12:37:41.862Z,42.19
2018-06-29T12:38:41.847Z,42.36
2018-06-29T12:39:42.639Z,42.66
2018-06-29T12:40:41.821Z,43.34
2018-06-29T12:41:41.894Z,42.95
2018-06-29T12:42:41.820Z,43.63
2018-06-29T12:43:41.972Z,43.12
2018-06-29T12:44:41.830Z,43.22
2018-06-29T12:45:41.799Z,42.83
2018-06-29T12:46:41.779Z,43.12
2018-06-29T12:47:41.857Z,43.54
2018-06-29T12:48:41.765Z,42.85
2018-06-29T12:49:41.755Z,42.56
2018-06-29T12:50:41.743Z,42.25
2018-06-29T12:51:41.750Z,42.05
2018-06-29T12:52:41.738Z,42.08